createdAt,value
2018-10-17T00:00:19.210Z,11.10
2018-10-17T00:05:02.944Z,11.20
2018-10-17T00:09:46.776Z,11.10
2018-10-17T00:14:30.498Z,11.10
2018-10-17T00:19:14.272Z,11.10
2018-10-17T00:23:58.374Z,10.80
2018-10-17T00:28:42.039Z,10.60
2018-10-17T00:33:25.799Z,10.30
2018-10-17T00:38:09.473Z,10.00
2018-10-17T00:42:53.680Z,10.00
2018-10-17T00:47:37.379Z,9.80
2018-10-17T00:52:21.198Z,9.90
2018-10-17T00:57:05.006Z,10.10
2018-10-17T01:01:48.744Z,10.20
2018-10-17T01:06:33.415Z,10.10
2018-10-17T01:11:17.139Z,10.00
2018-10-17T01:16:00.942Z,9.90
2018-10-17T01:20:44.762Z,9.90
2018-10-17T01:25:28.513Z,9.90
2018-10-17T01:30:12.194Z,9.90
2018-10-17T01:34:56.144Z,9.90
2018-10-17T01:39:40.046Z,9.80
2018-10-17T01:44:23.835Z,9.80
2018-10-17T01:49:07.641Z,9.80
2018-10-17T01:53:51.310Z,9.90
2018-10-17T01:58:35.244Z,10.20
2018-10-17T02:03:18.883Z,10.40
2018-10-17T02:08:02.609Z,10.60
2018-10-17T02:12:46.347Z,10.70
2018-10-17T02:17:29.968Z,10.60
2018-10-17T02:22:13.655Z,10.50
2018-10-17T02:26:57.396Z,10.50
2018-10-17T02:31:41.045Z,10.50
2018-10-17T02:36:24.746Z,10.40
2018-10-17T02:41:08.505Z,10.30
2018-10-17T02:45:52.219Z,10.10
2018-10-17T02:50:35.916Z,9.90
2018-10-17T02:55:19.602Z,9.50
2018-10-17T03:00:03.578Z,9.10
2018-10-17T03:04:47.226Z,9.20
2018-10-17T03:09:30.892Z,9.10
2018-10-17T03:14:14.717Z,9.20
2018-10-17T03:18:58.449Z,9.10
2018-10-17T03:23:42.324Z,9.10
2018-10-17T03:28:26.146Z,9.00
2018-10-17T03:33:09.991Z,9.10
2018-10-17T03:37:53.640Z,9.30
2018-10-17T03:42:37.486Z,9.30
2018-10-17T03:47:21.426Z,9.10
2018-10-17T03:52:05.535Z,8.90
2018-10-17T03:56:49.274Z,8.90
2018-10-17T04:01:33.037Z,9.00
2018-10-17T04:06:16.840Z,9.10
2018-10-17T04:11:00.609Z,9.20
2018-10-17T04:15:44.394Z,9.10
2018-10-17T04:20:28.083Z,8.90
2018-10-17T04:25:12.159Z,8.80
2018-10-17T04:29:56.084Z,8.70
2018-10-17T04:34:40.284Z,8.60
2018-10-17T04:39:24.072Z,8.60
2018-10-17T04:44:08.834Z,8.60
2018-10-17T04:48:52.745Z,8.70
2018-10-17T04:53:36.822Z,9.00
2018-10-17T04:58:20.809Z,9.00
2018-10-17T05:03:05.016Z,9.20
2018-10-17T05:07:48.876Z,9.30
2018-10-17T05:12:32.752Z,9.30
2018-10-17T05:17:16.512Z,9.40
2018-10-17T05:22:00.226Z,9.60
2018-10-17T05:26:44.346Z,9.60
2018-10-17T05:31:28.134Z,9.50
2018-10-17T05:36:11.950Z,9.50
2018-10-17T05:40:55.854Z,9.60
2018-10-17T05:45:39.714Z,9.70
2018-10-17T05:50:23.470Z,9.60
2018-10-17T05:55:07.601Z,9.30
2018-10-17T05:59:51.231Z,9.10
2018-10-17T06:04:35.339Z,8.90
2018-10-17T06:09:19.169Z,8.90
2018-10-17T06:14:03.069Z,9.00
2018-10-17T06:18:46.777Z,9.00
2018-10-17T06:23:30.667Z,9.00
2018-10-17T06:28:14.715Z,9.20
2018-10-17T06:32:58.701Z,9.30
2018-10-17T06:37:42.625Z,9.40
2018-10-17T06:42:26.724Z,9.60
2018-10-17T06:47:10.674Z,9.80
2018-10-17T06:51:54.555Z,9.90
2018-10-17T06:56:38.365Z,10.10
2018-10-17T07:01:22.121Z,10.20
2018-10-17T07:06:05.833Z,10.50
2018-10-17T07:10:49.714Z,10.80
2018-10-17T07:15:33.710Z,10.90
2018-10-17T07:20:17.705Z,11.20
2018-10-17T07:25:01.457Z,11.60
2018-10-17T07:29:45.320Z,12.00
2018-10-17T07:34:29.300Z,12.30
2018-10-17T07:39:13.198Z,12.70
2018-10-17T07:43:56.901Z,12.90
2018-10-17T07:48:40.602Z,13.30
2018-10-17T07:53:24.567Z,13.70
2018-10-17T07:58:08.381Z,13.90
2018-10-17T08:02:52.066Z,14.40
2018-10-17T08:07:36.028Z,14.70
2018-10-17T08:12:19.910Z,15.20
2018-10-17T08:17:03.717Z,15.50
2018-10-17T08:21:47.463Z,15.90
2018-10-17T08:26:31.339Z,16.30
2018-10-17T08:31:15.147Z,16.40
2018-10-17T08:35:59.054Z,16.70
2018-10-17T08:40:43.068Z,16.90
2018-10-17T08:45:26.817Z,17.00
2018-10-17T08:50:10.701Z,17.10
2018-10-17T08:54:54.535Z,17.30
2018-10-17T08:59:38.371Z,17.70
2018-10-17T09:04:22.164Z,18.10
2018-10-17T09:09:10.223Z,18.40
2018-10-17T09:13:54.289Z,18.70
2018-10-17T09:18:38.362Z,18.90
2018-10-17T09:23:22.254Z,19.10
2018-10-17T09:28:06.525Z,19.50
2018-10-17T09:32:50.495Z,19.70
2018-10-17T09:37:34.298Z,19.70
2018-10-17T09:42:18.420Z,19.90
2018-10-17T09:47:02.121Z,20.00
2018-10-17T09:51:46.239Z,20.20
2018-10-17T09:56:30.020Z,20.30
2018-10-17T10:01:18.015Z,20.20
2018-10-17T10:06:02.118Z,20.20
2018-10-17T10:10:45.973Z,20.10
2018-10-17T10:15:30.022Z,20.00
2018-10-17T10:20:13.995Z,20.10
2018-10-17T10:24:58.057Z,20.00
2018-10-17T10:29:41.809Z,19.90
2018-10-17T10:34:25.703Z,20.10
2018-10-17T10:39:10.902Z,20.20
2018-10-17T10:43:54.807Z,20.40
2018-10-17T10:48:38.988Z,20.40
2018-10-17T10:53:22.923Z,20.50
2018-10-17T10:58:06.892Z,20.60
2018-10-17T11:02:50.643Z,20.80
2018-10-17T11:07:34.647Z,20.80
2018-10-17T11:12:18.603Z,21.10
2018-10-17T11:17:02.411Z,21.20
2018-10-17T11:21:46.432Z,21.30
2018-10-17T11:26:30.111Z,21.20
2018-10-17T11:31:13.929Z,21.30
2018-10-17T11:35:58.241Z,21.50
2018-10-17T11:40:42.617Z,21.40
2018-10-17T11:45:26.575Z,21.30
2018-10-17T11:50:11.288Z,21.60
2018-10-17T11:54:55.087Z,21.60
2018-10-17T11:59:39.282Z,21.80
2018-10-17T12:04:23.391Z,21.80
2018-10-17T12:09:08.410Z,21.90
2018-10-17T12:13:55.934Z,21.80
2018-10-17T12:18:39.788Z,22.10
2018-10-17T12:23:23.609Z,22.10
2018-10-17T12:28:07.725Z,22.30
2018-10-17T12:32:51.514Z,22.30
2018-10-17T12:37:36.515Z,22.40
2018-10-17T12:42:21.892Z,22.50
2018-10-17T12:47:06.178Z,22.60
2018-10-17T12:51:50.701Z,22.60
2018-10-17T12:56:34.637Z,22.50
2018-10-17T13:01:18.443Z,22.30
2018-10-17T13:06:02.250Z,22.20
2018-10-17T13:10:46.063Z,22.30
2018-10-17T13:15:29.791Z,22.30
2018-10-17T13:20:13.707Z,22.30
2018-10-17T13:24:57.497Z,22.40
2018-10-17T13:29:41.248Z,22.20
2018-10-17T13:34:25.283Z,22.00
2018-10-17T13:39:10.776Z,21.90
2018-10-17T13:43:54.527Z,21.90
2018-10-17T13:48:38.363Z,21.80
2018-10-17T13:53:22.244Z,21.50
2018-10-17T13:58:06.556Z,21.60
2018-10-17T14:02:50.305Z,21.50
2018-10-17T14:07:34.230Z,21.40
2018-10-17T14:12:18.214Z,21.30
2018-10-17T14:17:01.982Z,21.20
2018-10-17T14:21:45.759Z,21.00
2018-10-17T14:26:29.578Z,21.00
2018-10-17T14:31:13.383Z,20.90
2018-10-17T14:35:57.234Z,20.70
2018-10-17T14:40:40.998Z,20.50
2018-10-17T14:45:25.916Z,20.30
2018-10-17T14:50:09.846Z,20.10
2018-10-17T14:54:53.753Z,20.00
2018-10-17T14:59:37.515Z,19.80
2018-10-17T15:04:21.529Z,19.60
2018-10-17T15:09:07.803Z,19.30
2018-10-17T15:13:51.468Z,18.90
2018-10-17T15:18:35.386Z,18.50
2018-10-17T15:23:19.079Z,18.10
2018-10-17T15:28:02.894Z,17.70
2018-10-17T15:32:46.637Z,17.30
2018-10-17T15:37:30.842Z,17.00
2018-10-17T15:42:14.676Z,16.70
2018-10-17T15:46:58.716Z,16.40
2018-10-17T15:51:42.390Z,16.00
2018-10-17T15:56:26.232Z,15.60
2018-10-17T16:01:10.036Z,15.30
2018-10-17T16:05:53.821Z,15.10
2018-10-17T16:10:37.651Z,14.70
2018-10-17T16:15:21.508Z,14.40
2018-10-17T16:20:07.394Z,14.10
2018-10-17T16:24:51.102Z,13.90
2018-10-17T16:29:34.867Z,13.70
2018-10-17T16:34:18.779Z,13.50
2018-10-17T16:39:02.676Z,13.40
2018-10-17T16:43:46.488Z,13.20
2018-10-17T16:48:30.454Z,12.90
2018-10-17T16:53:14.429Z,12.90
2018-10-17T16:57:58.235Z,12.60
2018-10-17T17:02:41.958Z,12.30
2018-10-17T17:07:25.961Z,12.10
2018-10-17T17:12:09.894Z,12.00
2018-10-17T17:16:53.603Z,11.80
2018-10-17T17:21:37.366Z,11.90
2018-10-17T17:26:21.111Z,11.90
2018-10-17T17:31:04.821Z,11.90
2018-10-17T17:35:48.673Z,11.80
2018-10-17T17:40:32.353Z,11.70
2018-10-17T17:45:15.999Z,11.50
2018-10-17T17:49:59.709Z,11.30
2018-10-17T17:54:43.976Z,11.20
2018-10-17T17:59:28.126Z,11.20
2018-10-17T18:04:12.243Z,11.10
2018-10-17T18:08:56.430Z,11.00
2018-10-17T18:13:40.607Z,10.90
2018-10-17T18:18:24.611Z,10.90
2018-10-17T18:23:08.803Z,10.80
2018-10-17T18:27:53.580Z,10.80
2018-10-17T18:32:37.684Z,10.80
2018-10-17T18:37:21.747Z,10.60
2018-10-17T18:42:06.089Z,10.60
2018-10-17T18:46:51.032Z,10.50
2018-10-17T18:51:34.976Z,10.50
2018-10-17T18:56:19.003Z,10.40
2018-10-17T19:01:02.820Z,10.30
2018-10-17T19:05:46.656Z,10.20
2018-10-17T19:10:30.803Z,10.30
2018-10-17T19:15:15.094Z,10.20
2018-10-17T19:19:58.952Z,10.10
2018-10-17T19:24:42.840Z,10.20
2018-10-17T19:29:26.583Z,10.20
2018-10-17T19:34:10.262Z,10.10
2018-10-17T19:38:54.133Z,10.20
2018-10-17T19:43:37.857Z,10.20
2018-10-17T19:48:21.722Z,10.30
2018-10-17T19:53:05.570Z,10.40
2018-10-17T19:57:49.350Z,10.40
2018-10-17T20:02:33.076Z,10.40
2018-10-17T20:07:16.900Z,10.60
2018-10-17T20:12:00.758Z,10.90
2018-10-17T20:16:44.532Z,11.20
2018-10-17T20:21:28.316Z,11.40
2018-10-17T20:26:12.414Z,11.60
2018-10-17T20:30:56.337Z,11.70
2018-10-17T20:35:40.247Z,11.70
2018-10-17T20:40:23.998Z,11.60
2018-10-17T20:45:08.017Z,11.50
2018-10-17T20:49:51.822Z,11.40
2018-10-17T20:54:35.624Z,11.30
2018-10-17T20:59:19.385Z,11.50
2018-10-17T21:04:03.083Z,11.60
2018-10-17T21:08:46.818Z,11.80
2018-10-17T21:13:30.622Z,11.80
2018-10-17T21:18:14.473Z,11.70
2018-10-17T21:22:58.243Z,11.60
2018-10-17T21:27:41.934Z,11.60
2018-10-17T21:32:25.751Z,11.60
2018-10-17T21:37:09.463Z,11.60
2018-10-17T21:41:53.259Z,11.60
2018-10-17T21:46:37.121Z,11.50
2018-10-17T21:51:20.791Z,11.40
2018-10-17T21:56:04.779Z,11.40
2018-10-17T22:00:48.584Z,11.60
2018-10-17T22:05:32.279Z,11.70
2018-10-17T22:10:16.193Z,11.70
2018-10-17T22:15:00.882Z,11.50
2018-10-17T22:19:44.826Z,11.50
2018-10-17T22:24:28.645Z,11.70
2018-10-17T22:29:12.401Z,11.80
2018-10-17T22:33:56.235Z,11.80
2018-10-17T22:38:40.019Z,11.60
2018-10-17T22:43:23.779Z,11.60
2018-10-17T22:48:07.537Z,11.60
2018-10-17T22:52:51.318Z,11.50
2018-10-17T22:57:35.363Z,11.50
2018-10-17T23:02:19.165Z,11.40
2018-10-17T23:07:02.863Z,11.40
2018-10-17T23:11:46.587Z,11.20
2018-10-17T23:16:30.518Z,11.20
2018-10-17T23:21:14.361Z,11.30
2018-10-17T23:25:58.115Z,11.30
2018-10-17T23:30:41.895Z,11.30
2018-10-17T23:35:25.795Z,11.20
2018-10-17T23:40:09.939Z,11.10
2018-10-17T23:44:54.119Z,11.00
2018-10-17T23:49:37.895Z,10.90
2018-10-17T23:54:21.743Z,10.90
2018-10-17T23:59:05.620Z,11.00
